Time;durP1;ratioP1;P1;durP2;ratioP2;P2;SDS_P1;SDS_P2;PMS_P1;PMS_P2;Temp;Humidity;BMP_temperature;BMP_pressure;BME280_temperature;BME280_humidity;BME280_pressure;Samples;Min_cycle;Max_cycle;Signal;HPM_P1;HPM_P2
2020/12/21 00:00:32;;;;;;;161.30;79.03;;;4.80;99.90;;;;;;5069382;28;20033;-74
2020/12/21 00:02:57;;;;;;;145.75;73.20;;;4.80;99.90;;;;;;5069054;28;20491;-74
2020/12/21 00:05:23;;;;;;;152.93;74.63;;;4.80;99.90;;;;;;5069213;28;20062;-74
2020/12/21 00:07:49;;;;;;;203.48;91.82;;;4.80;99.90;;;;;;5069121;28;20021;-74
2020/12/21 00:10:15;;;;;;;186.45;89.78;;;4.80;99.90;;;;;;5071275;28;20016;-75
2020/12/21 00:12:43;;;;;;;169.82;86.82;;;4.80;99.90;;;;;;5073051;28;20025;-74
2020/12/21 00:15:09;;;;;;;172.02;80.68;;;4.80;99.90;;;;;;5074224;28;20031;-75
2020/12/21 00:17:34;;;;;;;153.77;74.72;;;4.70;99.90;;;;;;5073267;28;20054;-74
2020/12/21 00:20:00;;;;;;;145.35;69.60;;;4.80;99.90;;;;;;5073090;28;20021;-75
2020/12/21 00:22:26;;;;;;;159.40;77.82;;;4.80;99.90;;;;;;5072518;28;20147;-74
2020/12/21 00:24:52;;;;;;;125.57;68.10;;;4.80;99.90;;;;;;5072846;28;20013;-74
2020/12/21 00:27:18;;;;;;;133.48;71.47;;;4.80;99.90;;;;;;5071996;28;20035;-74
2020/12/21 00:29:44;;;;;;;162.95;81.60;;;4.80;99.90;;;;;;5071323;28;20027;-74
2020/12/21 00:32:10;;;;;;;155.88;78.72;;;4.80;99.90;;;;;;5072260;28;20033;-74
2020/12/21 00:34:36;;;;;;;136.13;71.53;;;4.80;99.90;;;;;;5072641;28;20020;-74
2020/12/21 00:37:03;;;;;;;139.95;70.63;;;4.90;99.90;;;;;;5070806;28;20031;-74
2020/12/21 00:39:29;;;;;;;131.45;65.35;;;4.80;99.90;;;;;;5072208;28;20129;-74
2020/12/21 00:41:55;;;;;;;122.40;64.88;;;4.90;99.90;;;;;;5073666;28;20115;-74
2020/12/21 00:44:20;;;;;;;122.53;62.78;;;4.80;99.90;;;;;;5073777;28;20036;-74
2020/12/21 00:46:46;;;;;;;130.45;64.50;;;4.90;99.90;;;;;;5073545;28;20025;-74
2020/12/21 00:49:12;;;;;;;115.53;63.05;;;4.90;99.90;;;;;;5073970;28;20021;-75
2020/12/21 00:51:38;;;;;;;126.65;65.15;;;4.90;99.90;;;;;;5073750;28;20100;-75
2020/12/21 00:54:04;;;;;;;117.00;60.55;;;4.90;99.90;;;;;;5072441;28;20706;-75
2020/12/21 00:56:30;;;;;;;112.20;61.08;;;4.90;99.90;;;;;;5073780;28;20027;-75
2020/12/21 00:58:56;;;;;;;114.43;60.88;;;4.90;99.90;;;;;;5072418;28;20032;-74
2020/12/21 01:01:28;;;;;;;143.68;71.43;;;4.90;99.90;;;;;;5073215;28;20090;-74
2020/12/21 01:03:55;;;;;;;181.73;82.95;;;4.90;99.90;;;;;;5073235;28;20028;-74
2020/12/21 01:06:21;;;;;;;178.38;77.95;;;4.90;99.90;;;;;;5073333;28;20108;-74
2020/12/21 01:08:47;;;;;;;190.77;81.10;;;4.90;99.90;;;;;;5072031;28;20104;-74
2020/12/21 01:11:15;;;;;;;174.00;77.53;;;4.90;99.90;;;;;;5073351;28;20025;-74
2020/12/21 01:13:42;;;;;;;184.43;76.25;;;4.80;99.90;;;;;;5073008;28;20099;-74
2020/12/21 01:16:08;;;;;;;183.18;77.93;;;4.90;99.90;;;;;;5071698;28;20082;-74
2020/12/21 01:18:35;;;;;;;115.70;58.45;;;4.80;99.90;;;;;;5072972;28;20024;-74
2020/12/21 01:21:01;;;;;;;229.23;89.32;;;4.80;99.90;;;;;;5071730;28;20036;-75
2020/12/21 01:23:27;;;;;;;254.90;88.15;;;4.80;99.90;;;;;;5072607;28;20691;-75
2020/12/21 01:25:53;;;;;;;144.57;61.55;;;4.80;99.90;;;;;;5073011;28;20028;-75
2020/12/21 01:28:19;;;;;;;149.52;58.28;;;4.80;99.90;;;;;;5073049;28;20036;-74
2020/12/21 01:30:45;;;;;;;112.90;51.10;;;4.80;99.90;;;;;;5072844;28;20044;-74
2020/12/21 01:33:11;;;;;;;108.25;48.95;;;4.90;99.90;;;;;;5072874;28;20028;-74
2020/12/21 01:35:38;;;;;;;95.72;47.58;;;4.90;99.90;;;;;;5073025;28;20103;-75
2020/12/21 01:38:04;;;;;;;91.03;46.35;;;4.90;99.90;;;;;;5072732;28;20436;-74
2020/12/21 01:40:31;;;;;;;72.50;40.40;;;5.00;99.90;;;;;;5073071;28;20086;-74
2020/12/21 01:42:58;;;;;;;71.75;41.55;;;4.90;99.90;;;;;;5072814;28;20021;-75
2020/12/21 01:45:24;;;;;;;83.55;41.83;;;5.00;99.90;;;;;;5072912;28;20838;-74
2020/12/21 01:47:50;;;;;;;116.93;48.40;;;5.00;99.90;;;;;;5072626;28;20017;-75
2020/12/21 01:50:16;;;;;;;162.00;59.60;;;4.90;99.90;;;;;;5072680;28;20380;-75
2020/12/21 01:52:42;;;;;;;93.28;41.63;;;5.00;99.90;;;;;;5072659;28;20047;-75
2020/12/21 01:55:08;;;;;;;71.38;38.33;;;5.00;99.90;;;;;;5072645;28;20025;-74
2020/12/21 01:57:34;;;;;;;61.47;35.58;;;5.00;99.90;;;;;;5072426;28;20028;-74
2020/12/21 02:00:07;;;;;;;144.23;53.67;;;5.00;99.90;;;;;;5072479;28;20089;-75
2020/12/21 02:02:34;;;;;;;160.23;58.78;;;4.90;99.90;;;;;;5070955;28;20443;-74
2020/12/21 02:05:01;;;;;;;128.93;53.20;;;4.90;99.90;;;;;;5072305;28;20792;-75
2020/12/21 02:07:28;;;;;;;91.35;42.20;;;4.90;99.90;;;;;;5072167;28;20029;-75
2020/12/21 02:09:55;;;;;;;117.10;49.35;;;4.90;99.90;;;;;;5072258;28;20020;-75
2020/12/21 02:12:21;;;;;;;78.05;41.60;;;4.90;99.90;;;;;;5070828;28;20799;-74
2020/12/21 02:14:46;;;;;;;74.00;40.30;;;4.90;99.90;;;;;;5072069;28;20028;-75
2020/12/21 02:17:12;;;;;;;155.95;65.35;;;4.90;99.90;;;;;;5070916;28;20078;-75
2020/12/21 02:19:38;;;;;;;87.35;46.70;;;4.90;99.90;;;;;;5070873;28;20088;-75
2020/12/21 02:22:04;;;;;;;91.88;45.10;;;4.90;99.90;;;;;;5071931;28;20533;-74
2020/12/21 02:24:30;;;;;;;128.30;54.35;;;4.90;99.90;;;;;;5070856;28;20052;-75
2020/12/21 02:26:55;;;;;;;108.60;49.75;;;4.90;99.90;;;;;;5070610;28;20032;-74
2020/12/21 02:29:21;;;;;;;109.05;51.75;;;4.80;99.90;;;;;;5070455;28;20038;-75
2020/12/21 02:31:47;;;;;;;101.38;49.35;;;4.80;99.90;;;;;;5070360;28;20027;-75
2020/12/21 02:34:18;;;;;;;91.15;48.97;;;4.90;99.90;;;;;;5071717;28;20025;-75
2020/12/21 02:36:44;;;;;;;94.05;46.00;;;4.80;99.90;;;;;;5071856;28;20523;-74
2020/12/21 02:39:10;;;;;;;78.97;40.72;;;4.80;99.90;;;;;;5071570;28;20104;-75
2020/12/21 02:41:36;;;;;;;76.75;39.85;;;4.80;99.90;;;;;;5071499;28;20024;-74
2020/12/21 02:44:02;;;;;;;106.32;44.53;;;4.80;99.90;;;;;;5071310;28;20032;-74
2020/12/21 02:46:27;;;;;;;72.55;39.38;;;4.80;99.90;;;;;;5071507;28;20029;-75
2020/12/21 02:48:53;;;;;;;78.82;41.28;;;4.80;99.90;;;;;;5071334;28;20535;-75
2020/12/21 02:51:19;;;;;;;80.63;39.40;;;4.80;99.90;;;;;;5071668;28;20021;-74
2020/12/21 02:53:45;;;;;;;259.95;81.40;;;4.80;99.90;;;;;;5071273;28;20794;-74
2020/12/21 02:56:11;;;;;;;203.52;69.50;;;4.80;99.90;;;;;;5070073;28;20119;-75
2020/12/21 02:58:37;;;;;;;134.88;54.05;;;4.80;99.90;;;;;;5071523;28;20032;-75
2020/12/21 03:01:03;;;;;;;94.68;44.55;;;4.80;99.90;;;;;;5071841;28;20111;-75
2020/12/21 03:03:29;;;;;;;76.78;41.78;;;4.80;99.90;;;;;;5071476;28;20111;-75
2020/12/21 03:05:55;;;;;;;74.05;40.75;;;4.80;99.90;;;;;;5071677;28;20017;-75
2020/12/21 03:08:21;;;;;;;214.73;67.57;;;4.80;99.90;;;;;;5071682;28;20025;-75
2020/12/21 03:10:47;;;;;;;393.33;116.47;;;4.80;99.90;;;;;;5071561;28;20070;-75
2020/12/21 03:13:12;;;;;;;345.08;99.63;;;4.80;99.90;;;;;;5071547;28;20154;-75
2020/12/21 03:15:38;;;;;;;125.57;52.00;;;4.80;99.90;;;;;;5071586;28;20021;-75
2020/12/21 03:18:04;;;;;;;93.70;45.47;;;4.80;99.90;;;;;;5071317;28;20429;-75
2020/12/21 03:20:30;;;;;;;78.68;41.35;;;4.80;99.90;;;;;;5071581;28;20809;-75
2020/12/21 03:22:56;;;;;;;123.10;51.55;;;4.70;99.90;;;;;;5071353;28;20048;-75
2020/12/21 03:25:22;;;;;;;96.50;46.85;;;4.70;99.90;;;;;;5071558;28;20028;-75
2020/12/21 03:27:48;;;;;;;98.88;47.10;;;4.70;99.90;;;;;;5071370;28;20032;-74
2020/12/21 03:30:14;;;;;;;84.55;41.58;;;4.70;99.90;;;;;;5069640;28;20031;-75
2020/12/21 03:32:40;;;;;;;79.03;41.30;;;4.80;99.90;;;;;;5069776;28;20475;-74
2020/12/21 03:35:06;;;;;;;95.10;45.30;;;4.80;99.90;;;;;;5070923;28;20037;-74
2020/12/21 03:37:34;;;;;;;125.82;47.25;;;4.70;99.90;;;;;;5070779;28;20066;-74
2020/12/21 03:40:01;;;;;;;117.57;49.80;;;4.70;99.90;;;;;;5069648;28;20430;-75
2020/12/21 03:42:27;;;;;;;114.18;49.72;;;4.70;99.90;;;;;;5070912;28;20027;-75
2020/12/21 03:44:53;;;;;;;112.57;48.95;;;4.70;99.90;;;;;;5072393;28;20024;-75
2020/12/21 03:47:18;;;;;;;104.65;49.17;;;4.70;99.90;;;;;;5073554;28;20123;-74
2020/12/21 03:49:44;;;;;;;80.30;42.22;;;4.70;99.90;;;;;;5075090;28;20071;-75
2020/12/21 03:52:10;;;;;;;77.20;42.17;;;4.70;99.90;;;;;;5073690;28;20034;-75
2020/12/21 03:54:36;;;;;;;78.75;40.53;;;4.70;99.90;;;;;;5075110;28;20078;-75
2020/12/21 03:57:02;;;;;;;80.60;43.15;;;4.70;99.90;;;;;;5075016;28;20035;-75
2020/12/21 03:59:28;;;;;;;83.90;42.17;;;4.70;99.90;;;;;;5075178;28;20032;-75
2020/12/21 04:01:53;;;;;;;80.90;44.55;;;4.70;99.90;;;;;;5074993;28;20028;-75
2020/12/21 04:04:19;;;;;;;85.68;46.45;;;4.70;99.90;;;;;;5073514;28;20551;-75
2020/12/21 04:06:45;;;;;;;86.18;46.38;;;4.70;99.90;;;;;;5074758;28;20055;-75
2020/12/21 04:09:11;;;;;;;98.88;48.28;;;4.70;99.90;;;;;;5074738;28;20365;-75
2020/12/21 04:11:37;;;;;;;92.70;52.00;;;4.70;99.90;;;;;;5074814;28;20024;-75
2020/12/21 04:14:02;;;;;;;93.13;49.70;;;4.70;99.90;;;;;;5073317;28;20024;-75
2020/12/21 04:16:28;;;;;;;100.13;53.55;;;4.70;99.90;;;;;;5073207;28;20033;-75
2020/12/21 04:18:54;;;;;;;125.10;69.72;;;4.60;99.90;;;;;;5074669;28;20059;-75
2020/12/21 04:21:20;;;;;;;128.45;68.70;;;4.70;99.90;;;;;;5074791;28;20028;-75
2020/12/21 04:23:46;;;;;;;120.60;65.78;;;4.70;99.90;;;;;;5072814;28;20063;-75
2020/12/21 04:26:12;;;;;;;113.72;61.10;;;4.70;99.90;;;;;;5072988;28;20059;-74
2020/12/21 04:28:38;;;;;;;114.65;63.63;;;4.60;99.90;;;;;;5074071;28;20078;-75
2020/12/21 04:31:05;;;;;;;115.65;63.40;;;4.60;99.90;;;;;;5074079;28;20020;-75
2020/12/21 04:33:32;;;;;;;108.13;63.60;;;4.60;99.90;;;;;;5074070;28;20028;-74
2020/12/21 04:35:58;;;;;;;113.40;63.22;;;4.70;99.90;;;;;;5073943;28;20017;-75
2020/12/21 04:38:24;;;;;;;109.43;61.28;;;4.60;99.90;;;;;;5074224;28;20480;-75
2020/12/21 04:40:55;;;;;;;110.75;63.05;;;4.70;99.90;;;;;;5074172;28;20095;-75
2020/12/21 04:43:24;;;;;;;106.72;58.05;;;4.70;99.90;;;;;;5074144;28;20118;-75
2020/12/21 04:45:54;;;;;;;95.80;55.58;;;4.60;99.90;;;;;;5073917;28;20023;-75
2020/12/21 04:48:22;;;;;;;91.68;53.92;;;4.70;99.90;;;;;;5073835;28;20055;-74
2020/12/21 04:50:55;;;;;;;95.95;53.38;;;4.70;99.90;;;;;;5073826;28;20024;-75
2020/12/21 04:53:22;;;;;;;92.47;52.58;;;4.70;99.90;;;;;;5073581;28;20209;-75
2020/12/21 04:55:49;;;;;;;89.05;52.05;;;4.60;99.90;;;;;;5073578;28;20877;-75
2020/12/21 04:58:15;;;;;;;86.55;51.75;;;4.70;99.90;;;;;;5074110;28;20060;-75
2020/12/21 05:00:41;;;;;;;99.07;54.35;;;4.70;99.90;;;;;;5073755;28;20059;-75
2020/12/21 05:03:07;;;;;;;117.25;64.72;;;4.70;99.90;;;;;;5073844;28;20024;-75
2020/12/21 05:05:43;;;;;;;114.97;60.63;;;4.70;99.90;;;;;;5073599;28;20478;-75
2020/12/21 05:08:16;;;;;;;124.05;65.38;;;4.70;99.90;;;;;;5073416;28;20532;-75
2020/12/21 05:10:46;;;;;;;128.05;66.40;;;4.70;99.90;;;;;;5073499;28;20031;-75
2020/12/21 05:13:13;;;;;;;102.57;56.25;;;4.70;99.90;;;;;;5073450;28;20052;-75
2020/12/21 05:15:39;;;;;;;81.75;48.03;;;4.70;99.90;;;;;;5073230;28;20035;-74
2020/12/21 05:18:11;;;;;;;82.03;44.85;;;4.70;99.90;;;;;;5072255;28;20028;-75
2020/12/21 05:20:41;;;;;;;82.75;48.10;;;4.70;99.90;;;;;;5073058;28;20020;-75
2020/12/21 05:23:16;;;;;;;82.28;45.33;;;4.70;99.90;;;;;;5072957;28;20044;-75
2020/12/21 05:25:57;;;;;;;84.35;49.67;;;4.70;99.90;;;;;;5073093;28;20025;-74
2020/12/21 05:28:27;;;;;;;95.30;50.53;;;4.70;99.90;;;;;;5073003;28;20073;-74
2020/12/21 05:30:58;;;;;;;127.97;65.25;;;4.70;99.90;;;;;;5071565;28;20024;-74
2020/12/21 05:33:24;;;;;;;99.40;54.85;;;4.70;99.90;;;;;;5072864;28;20111;-75
2020/12/21 05:35:51;;;;;;;79.13;46.10;;;4.70;99.90;;;;;;5073154;28;20464;-75
2020/12/21 05:38:35;;;;;;;90.07;53.95;;;4.70;99.90;;;;;;5072862;28;20025;-75
2020/12/21 05:41:25;;;;;;;94.88;52.55;;;4.70;99.90;;;;;;5072709;28;20021;-75
2020/12/21 05:43:52;;;;;;;100.00;54.90;;;4.70;99.90;;;;;;5072783;28;20036;-75
2020/12/21 05:46:20;;;;;;;89.00;48.35;;;4.70;99.90;;;;;;5073193;28;20056;-75
2020/12/21 05:48:54;;;;;;;99.57;56.17;;;4.70;99.90;;;;;;5071662;28;20017;-75
2020/12/21 05:51:21;;;;;;;81.05;45.50;;;4.70;99.90;;;;;;5071571;28;20041;-75
2020/12/21 05:53:47;;;;;;;89.13;48.33;;;4.80;99.90;;;;;;5073090;28;20029;-75
2020/12/21 05:56:13;;;;;;;83.72;49.03;;;4.80;99.90;;;;;;5072943;28;20025;-75
2020/12/21 05:58:40;;;;;;;87.13;51.22;;;4.80;99.90;;;;;;5073054;28;20072;-75
2020/12/21 06:01:10;;;;;;;95.50;53.00;;;4.70;99.90;;;;;;5072746;28;20120;-76
2020/12/21 06:03:46;;;;;;;101.47;54.25;;;4.70;99.90;;;;;;5072807;28;20024;-75
2020/12/21 06:06:17;;;;;;;91.88;48.55;;;4.70;99.90;;;;;;5073002;28;20073;-75
2020/12/21 06:08:44;;;;;;;92.63;51.95;;;4.70;99.90;;;;;;5072055;28;20387;-75
2020/12/21 06:11:16;;;;;;;95.32;51.20;;;4.70;99.90;;;;;;5072722;28;20024;-75
2020/12/21 06:13:49;;;;;;;102.65;53.95;;;4.70;99.90;;;;;;5072521;28;20037;-75
2020/12/21 06:16:16;;;;;;;101.05;51.03;;;4.70;99.90;;;;;;5070902;28;20836;-75
2020/12/21 06:18:42;;;;;;;112.60;54.78;;;4.80;99.90;;;;;;5072108;28;20033;-74
2020/12/21 06:21:09;;;;;;;109.78;57.70;;;4.70;99.90;;;;;;5072009;28;20078;-75
2020/12/21 06:23:39;;;;;;;118.63;55.83;;;4.70;99.90;;;;;;5070571;28;20507;-74
2020/12/21 06:26:12;;;;;;;134.85;58.95;;;4.70;99.90;;;;;;5072033;28;20028;-75
2020/12/21 06:28:39;;;;;;;124.72;64.55;;;4.70;99.90;;;;;;5071819;28;20044;-75
2020/12/21 06:31:16;;;;;;;132.38;68.57;;;4.70;99.90;;;;;;5071938;28;20025;-75
2020/12/21 06:33:44;;;;;;;158.25;84.93;;;4.70;99.90;;;;;;5071760;28;20048;-75
2020/12/21 06:36:10;;;;;;;169.30;89.13;;;4.70;99.90;;;;;;5070581;28;20040;-75
2020/12/21 06:38:46;;;;;;;165.50;90.97;;;4.70;99.90;;;;;;5071863;28;20464;-75
2020/12/21 06:41:17;;;;;;;142.88;78.80;;;4.70;99.90;;;;;;5071841;28;20028;-74
2020/12/21 06:44:01;;;;;;;148.45;81.70;;;4.70;99.90;;;;;;5071596;28;20487;-75
2020/12/21 06:46:28;;;;;;;173.60;97.32;;;4.70;99.90;;;;;;5071662;28;20075;-75
2020/12/21 06:49:12;;;;;;;170.70;93.85;;;4.80;99.90;;;;;;5070631;28;20032;-75
2020/12/21 06:51:46;;;;;;;124.15;67.22;;;4.70;99.90;;;;;;5072162;28;20425;-75
2020/12/21 06:54:13;;;;;;;97.80;53.15;;;4.70;99.90;;;;;;5071797;28;20475;-75
2020/12/21 06:56:41;;;;;;;93.80;50.65;;;4.80;99.90;;;;;;5071554;28;20028;-75
2020/12/21 06:59:12;;;;;;;94.65;52.38;;;4.80;99.90;;;;;;5071609;28;20032;-74
2020/12/21 07:01:40;;;;;;;114.57;60.47;;;4.80;99.90;;;;;;5071428;28;20075;-75
2020/12/21 07:04:10;;;;;;;141.48;74.57;;;4.80;99.90;;;;;;5071207;28;20025;-74
2020/12/21 07:06:37;;;;;;;167.25;89.80;;;4.80;99.90;;;;;;5071329;28;20043;-74
2020/12/21 07:09:04;;;;;;;154.05;88.20;;;4.80;99.90;;;;;;5071360;28;20028;-74
2020/12/21 07:11:30;;;;;;;117.03;65.18;;;4.80;99.90;;;;;;5071203;28;20021;-74
2020/12/21 07:13:57;;;;;;;108.43;60.55;;;4.80;99.90;;;;;;5071041;28;20031;-74
2020/12/21 07:16:23;;;;;;;92.85;51.58;;;4.80;99.90;;;;;;5071307;28;20032;-75
2020/12/21 07:18:49;;;;;;;93.18;53.88;;;4.80;99.90;;;;;;5070870;28;20028;-74
2020/12/21 07:21:16;;;;;;;94.70;54.65;;;4.90;99.90;;;;;;5071119;28;20357;-74
2020/12/21 07:23:43;;;;;;;98.97;55.45;;;4.90;99.90;;;;;;5069412;28;20410;-74
2020/12/21 07:26:11;;;;;;;115.85;64.50;;;5.00;99.90;;;;;;5070940;28;20620;-75
2020/12/21 07:28:37;;;;;;;91.80;55.15;;;5.00;99.90;;;;;;5071168;28;20117;-75
2020/12/21 07:31:05;;;;;;;102.32;61.47;;;4.90;99.90;;;;;;5070981;28;20494;-75
2020/12/21 07:33:32;;;;;;;107.18;60.70;;;5.00;99.90;;;;;;5070941;28;20040;-75
2020/12/21 07:35:58;;;;;;;118.93;69.00;;;5.00;99.90;;;;;;5071251;28;20387;-74
2020/12/21 07:38:24;;;;;;;129.90;75.60;;;5.00;99.90;;;;;;5069772;28;20029;-75
2020/12/21 07:40:53;;;;;;;108.18;63.63;;;5.10;99.90;;;;;;5071020;28;20029;-75
2020/12/21 07:43:34;;;;;;;131.75;76.68;;;5.10;99.90;;;;;;5070790;28;20042;-75
2020/12/21 07:46:06;;;;;;;87.43;50.67;;;5.10;99.90;;;;;;5071094;28;20048;-75
2020/12/21 07:48:33;;;;;;;89.72;50.20;;;5.20;99.90;;;;;;5071088;28;20025;-75
2020/12/21 07:51:05;;;;;;;70.85;40.30;;;5.20;99.90;;;;;;5071023;28;20032;-75
2020/12/21 07:53:33;;;;;;;72.70;41.60;;;5.20;99.90;;;;;;5071042;28;20034;-75
2020/12/21 07:55:59;;;;;;;60.33;35.75;;;5.20;99.90;;;;;;5070995;28;20031;-75
2020/12/21 07:58:25;;;;;;;51.92;30.77;;;5.30;99.90;;;;;;5069414;28;20036;-75
2020/12/21 08:00:58;;;;;;;58.13;34.08;;;5.20;99.90;;;;;;5070773;28;20027;-75
2020/12/21 08:03:26;;;;;;;61.80;37.13;;;5.30;99.90;;;;;;5071129;28;20845;-75
2020/12/21 08:06:09;;;;;;;63.30;35.70;;;5.30;99.90;;;;;;5070952;28;20021;-75
2020/12/21 08:08:36;;;;;;;57.95;35.97;;;5.30;99.90;;;;;;5070570;28;20032;-74
2020/12/21 08:11:02;;;;;;;50.75;32.08;;;5.40;99.90;;;;;;5070560;28;20467;-75
2020/12/21 08:13:28;;;;;;;56.97;33.85;;;5.40;99.90;;;;;;5069278;28;20035;-75
2020/12/21 08:16:10;;;;;;;59.83;36.08;;;5.40;99.90;;;;;;5069335;28;20025;-75
2020/12/21 08:18:37;;;;;;;48.58;30.25;;;5.40;99.90;;;;;;5069279;28;20036;-74
2020/12/21 08:21:04;;;;;;;39.97;23.80;;;5.40;99.90;;;;;;5070576;28;20105;-74
2020/12/21 08:23:32;;;;;;;43.50;24.40;;;5.40;99.90;;;;;;5070289;28;20048;-75
2020/12/21 08:25:58;;;;;;;50.17;27.17;;;5.40;99.90;;;;;;5070632;28;20090;-75
2020/12/21 08:28:31;;;;;;;42.97;24.73;;;5.40;99.90;;;;;;5070657;28;20013;-75
2020/12/21 08:31:05;;;;;;;50.80;28.98;;;5.40;99.90;;;;;;5071829;28;20098;-74
2020/12/21 08:33:31;;;;;;;70.95;35.20;;;5.40;99.90;;;;;;5074279;28;20021;-75
2020/12/21 08:36:14;;;;;;;59.65;34.60;;;5.50;99.90;;;;;;5073984;28;20028;-74
2020/12/21 08:38:39;;;;;;;54.90;32.17;;;5.50;99.90;;;;;;5074160;28;20029;-75
2020/12/21 08:41:05;;;;;;;49.13;26.83;;;5.50;99.90;;;;;;5072764;28;20464;-74
2020/12/21 08:43:31;;;;;;;49.45;28.13;;;5.50;99.90;;;;;;5072684;28;20066;-75
2020/12/21 08:45:57;;;;;;;88.68;39.58;;;5.60;99.90;;;;;;5072444;28;20017;-74
2020/12/21 08:48:22;;;;;;;67.82;29.85;;;5.50;99.90;;;;;;5073560;28;20061;-72
2020/12/21 08:50:48;;;;;;;62.65;30.10;;;5.70;99.90;;;;;;5073448;28;20028;-72
2020/12/21 08:53:16;;;;;;;51.50;29.55;;;6.00;99.90;;;;;;5073325;28;20434;-73
2020/12/21 08:55:41;;;;;;;1999.90;999.90;;;5.90;99.90;;;;;;5073207;28;20089;-73
2020/12/21 08:58:07;;;;;;;1999.90;999.90;;;6.00;99.90;;;;;;5073302;28;20024;-72
2020/12/21 09:00:33;;;;;;;1999.90;999.90;;;6.10;99.90;;;;;;5073319;28;20020;-74
2020/12/21 09:02:59;;;;;;;1999.90;999.90;;;6.20;99.90;;;;;;5073100;28;20025;-74
2020/12/21 09:05:25;;;;;;;834.67;603.05;;;6.50;99.90;;;;;;5072162;28;20082;-75
2020/12/21 09:07:50;;;;;;;107.38;57.33;;;6.60;99.90;;;;;;5073294;28;20379;-75
2020/12/21 09:10:16;;;;;;;146.93;79.57;;;6.40;99.90;;;;;;5073134;28;20028;-75
2020/12/21 09:12:42;;;;;;;96.13;54.38;;;6.30;99.90;;;;;;5073313;28;20854;-74
2020/12/21 09:15:08;;;;;;;170.98;104.35;;;6.30;99.90;;;;;;5071972;28;20120;-73
2020/12/21 09:17:34;;;;;;;264.88;165.70;;;6.30;99.90;;;;;;5070606;28;20047;-76
2020/12/21 09:19:59;;;;;;;109.78;55.38;;;6.90;99.90;;;;;;5072888;28;20028;-73
2020/12/21 09:22:26;;;;;;;97.68;50.70;;;6.70;99.90;;;;;;5072613;28;20396;-75
2020/12/21 09:24:52;;;;;;;76.38;40.72;;;6.60;99.90;;;;;;5071821;28;20029;-75
2020/12/21 09:27:17;;;;;;;76.82;43.03;;;6.50;99.90;;;;;;5072867;28;20024;-75
2020/12/21 09:29:43;;;;;;;54.10;32.03;;;6.50;99.90;;;;;;5105090;28;20024;-75
2020/12/21 09:32:09;;;;;;;72.13;42.53;;;6.40;99.90;;;;;;5071239;28;20792;-75
2020/12/21 09:34:35;;;;;;;75.10;42.83;;;6.40;99.90;;;;;;5072807;28;20024;-74
2020/12/21 09:37:02;;;;;;;67.70;38.95;;;6.40;99.90;;;;;;5072676;28;20039;-75
2020/12/21 09:39:28;;;;;;;72.95;40.15;;;6.40;99.90;;;;;;5072425;28;20039;-75
2020/12/21 09:41:55;;;;;;;60.70;34.20;;;6.40;99.90;;;;;;5072407;28;20021;-73
2020/12/21 09:44:20;;;;;;;168.07;93.35;;;6.40;99.90;;;;;;5070422;28;20024;-75
2020/12/21 09:46:49;;;;;;;127.15;74.93;;;6.40;99.90;;;;;;5071162;28;20124;-74
2020/12/21 09:49:15;;;;;;;69.82;42.05;;;6.40;99.90;;;;;;5071487;28;20095;-73
2020/12/21 09:51:40;;;;;;;102.93;54.88;;;6.40;99.90;;;;;;5072338;28;20104;-73
2020/12/21 09:54:06;;;;;;;66.90;43.70;;;6.50;99.90;;;;;;5070908;28;20098;-74
2020/12/21 09:56:32;;;;;;;51.13;32.10;;;6.60;99.90;;;;;;5071869;28;20383;-74
2020/12/21 09:58:58;;;;;;;54.58;31.35;;;6.70;99.90;;;;;;5071770;28;20032;-74
2020/12/21 10:01:28;;;;;;;84.45;47.85;;;6.70;99.90;;;;;;5072264;28;20391;-75
2020/12/21 10:03:54;;;;;;;121.28;71.70;;;6.70;99.90;;;;;;5052398;28;20400;-75
2020/12/21 10:06:20;;;;;;;56.33;33.65;;;6.70;99.90;;;;;;5069635;28;20036;-74
2020/12/21 10:08:46;;;;;;;49.03;28.65;;;6.70;99.90;;;;;;5071777;28;20020;-75
2020/12/21 10:11:11;;;;;;;52.28;29.30;;;6.80;99.90;;;;;;5070410;28;20036;-75
2020/12/21 10:13:37;;;;;;;60.83;34.65;;;6.80;99.90;;;;;;5072011;28;20028;-75
2020/12/21 10:16:03;;;;;;;63.17;37.83;;;6.80;99.90;;;;;;5071954;28;20036;-75
2020/12/21 10:18:29;;;;;;;53.97;35.20;;;6.80;99.90;;;;;;5070730;28;20535;-75
2020/12/21 10:20:55;;;;;;;56.58;32.58;;;6.90;99.90;;;;;;5071937;28;20430;-76
2020/12/21 10:23:21;;;;;;;51.83;30.75;;;6.90;99.90;;;;;;5071466;28;20048;-75
2020/12/21 10:25:47;;;;;;;47.47;29.98;;;7.00;99.90;;;;;;5070078;28;20039;-75
2020/12/21 10:28:12;;;;;;;50.42;29.92;;;7.10;99.90;;;;;;5071730;28;20021;-75
2020/12/21 10:30:38;;;;;;;46.42;28.75;;;7.20;99.90;;;;;;5071609;28;20426;-75
2020/12/21 10:33:04;;;;;;;66.25;36.45;;;7.20;99.90;;;;;;5071733;28;20024;-75
2020/12/21 10:35:31;;;;;;;57.55;32.70;;;7.30;99.90;;;;;;5071283;28;20052;-75
2020/12/21 10:37:57;;;;;;;46.55;28.23;;;7.40;99.90;;;;;;5071449;28;20024;-75
2020/12/21 10:40:22;;;;;;;47.67;28.85;;;7.40;99.90;;;;;;5071525;28;20545;-75
2020/12/21 10:42:48;;;;;;;44.45;26.60;;;7.30;99.90;;;;;;5071370;28;20032;-75
2020/12/21 10:45:14;;;;;;;55.70;28.77;;;7.30;99.90;;;;;;5071326;28;20020;-74
2020/12/21 10:47:40;;;;;;;59.92;37.85;;;7.30;99.90;;;;;;5069410;28;20028;-74
2020/12/21 10:50:06;;;;;;;69.88;37.60;;;7.70;99.90;;;;;;5071117;28;20031;-74
2020/12/21 10:52:33;;;;;;;54.95;32.35;;;7.60;99.90;;;;;;5070981;28;20021;-73
2020/12/21 10:54:59;;;;;;;56.97;34.67;;;7.50;99.90;;;;;;5070695;28;20052;-74
2020/12/21 10:57:24;;;;;;;53.35;29.80;;;7.60;99.90;;;;;;5070950;28;20538;-74
2020/12/21 10:59:50;;;;;;;59.03;33.58;;;7.60;99.90;;;;;;5070919;28;20020;-73
2020/12/21 11:02:16;;;;;;;49.88;32.47;;;7.50;99.90;;;;;;5070743;28;20028;-73
2020/12/21 11:04:42;;;;;;;49.75;31.80;;;7.50;99.90;;;;;;5070876;28;20028;-73
2020/12/21 11:07:08;;;;;;;48.70;32.03;;;7.40;99.90;;;;;;5070799;28;20099;-73
2020/12/21 11:09:33;;;;;;;53.38;32.35;;;7.60;99.90;;;;;;5070791;28;20552;-74
2020/12/21 11:11:59;;;;;;;61.17;37.60;;;7.60;99.90;;;;;;5070742;28;20031;-73
2020/12/21 11:14:25;;;;;;;49.35;31.08;;;7.70;99.90;;;;;;5070723;28;20672;-73
2020/12/21 11:16:57;;;;;;;62.65;38.65;;;7.70;99.90;;;;;;5069058;28;20025;-74
2020/12/21 11:19:23;;;;;;;62.97;37.70;;;7.90;99.90;;;;;;5070567;28;20020;-73
2020/12/21 11:21:49;;;;;;;72.10;46.47;;;7.90;99.90;;;;;;5070717;28;20025;-73
2020/12/21 11:24:15;;;;;;;146.23;75.50;;;7.90;99.90;;;;;;5070437;28;20770;-74
2020/12/21 11:26:41;;;;;;;65.30;39.35;;;7.90;99.90;;;;;;5070457;28;20476;-74
2020/12/21 11:29:07;;;;;;;64.38;38.33;;;7.90;99.90;;;;;;5070507;28;20077;-74
2020/12/21 11:31:36;;;;;;;65.10;35.70;;;7.90;99.90;;;;;;5070625;28;20380;-74
2020/12/21 11:34:05;;;;;;;63.50;37.72;;;7.90;99.90;;;;;;5070666;28;20028;-75
2020/12/21 11:36:31;;;;;;;107.47;60.92;;;8.10;99.90;;;;;;5070731;28;20024;-75
2020/12/21 11:38:57;;;;;;;73.50;42.78;;;8.00;99.90;;;;;;5070658;28;20383;-75
2020/12/21 11:41:28;;;;;;;59.95;37.45;;;8.00;99.90;;;;;;5070534;28;20025;-75
2020/12/21 11:43:54;;;;;;;103.20;59.78;;;8.10;99.90;;;;;;5070763;28;20021;-75
2020/12/21 11:46:20;;;;;;;75.22;46.78;;;8.00;99.90;;;;;;5070624;28;20732;-75
2020/12/21 11:48:46;;;;;;;60.85;39.08;;;8.00;99.90;;;;;;5070112;28;20032;-75
2020/12/21 11:51:17;;;;;;;60.28;36.50;;;8.00;99.90;;;;;;5070470;28;20537;-75
2020/12/21 11:53:43;;;;;;;56.65;34.47;;;8.00;99.90;;;;;;5069573;28;20131;-75
2020/12/21 11:56:15;;;;;;;57.13;33.17;;;8.00;99.90;;;;;;5068876;28;20081;-75
2020/12/21 11:58:41;;;;;;;55.40;33.92;;;8.00;99.90;;;;;;5070006;28;20055;-75
2020/12/21 12:01:07;;;;;;;56.60;34.22;;;8.00;99.90;;;;;;5069017;28;20455;-75
2020/12/21 12:03:34;;;;;;;57.15;36.22;;;7.90;99.90;;;;;;5070035;28;20024;-75
2020/12/21 12:06:00;;;;;;;59.58;35.95;;;8.00;99.90;;;;;;5072071;28;20041;-74
2020/12/21 12:08:26;;;;;;;65.85;37.72;;;8.00;99.90;;;;;;5074091;28;20118;-74
2020/12/21 12:10:52;;;;;;;59.30;36.47;;;8.00;99.90;;;;;;5073548;28;20058;-74
2020/12/21 12:13:18;;;;;;;64.40;37.53;;;8.00;99.90;;;;;;5074167;28;20750;-74
2020/12/21 12:15:44;;;;;;;71.30;40.08;;;7.90;99.90;;;;;;5073950;28;20032;-75
2020/12/21 12:18:09;;;;;;;72.80;40.92;;;8.00;99.90;;;;;;5073527;28;20032;-74
2020/12/21 12:20:36;;;;;;;60.88;37.22;;;7.90;99.90;;;;;;5073107;28;20387;-75
2020/12/21 12:23:02;;;;;;;65.30;38.65;;;7.90;99.90;;;;;;5071948;28;20420;-74
2020/12/21 12:25:28;;;;;;;64.03;37.80;;;7.90;99.90;;;;;;5072489;28;20103;-74
2020/12/21 12:27:54;;;;;;;70.05;39.72;;;8.00;99.90;;;;;;5070857;28;20023;-73
2020/12/21 12:30:19;;;;;;;68.13;39.78;;;8.00;99.90;;;;;;5072332;28;21346;-74
2020/12/21 12:32:45;;;;;;;64.47;39.08;;;7.90;99.90;;;;;;5069246;28;20052;-74